createdAt,value
2018-09-25T00:00:18.971Z,99.70
2018-09-25T00:02:52.767Z,99.90
2018-09-25T00:05:26.580Z,99.90
2018-09-25T00:08:00.173Z,99.90
2018-09-25T00:10:33.932Z,99.90
2018-09-25T00:13:07.671Z,99.90
2018-09-25T00:15:41.524Z,99.90
2018-09-25T00:18:15.236Z,99.90
2018-09-25T00:20:49.131Z,99.90
2018-09-25T00:23:23.048Z,99.90
2018-09-25T00:25:57.774Z,99.70
2018-09-25T00:28:31.621Z,99.90
2018-09-25T01:02:11.530Z,99.90
2018-09-25T01:04:45.269Z,99.90
2018-09-25T01:07:19.037Z,99.90
2018-09-25T01:09:52.568Z,99.90
2018-09-25T01:12:26.340Z,99.90
2018-09-25T01:15:00.273Z,99.90
2018-09-25T01:17:34.101Z,99.90
2018-09-25T01:20:07.708Z,99.90
2018-09-25T01:22:41.293Z,99.90
2018-09-25T01:25:15.077Z,99.90
2018-09-25T01:27:48.864Z,99.90
2018-09-25T01:30:22.616Z,99.90
2018-09-25T01:32:56.531Z,99.90
2018-09-25T01:35:30.240Z,99.90
2018-09-25T01:38:04.054Z,99.90
2018-09-25T01:40:37.933Z,99.90
2018-09-25T01:43:11.556Z,99.90
2018-09-25T01:45:45.211Z,99.90
2018-09-25T01:48:18.991Z,99.90
2018-09-25T01:50:52.718Z,99.90
2018-09-25T01:53:26.457Z,99.90
2018-09-25T01:56:00.187Z,99.90
2018-09-25T01:58:33.915Z,99.90
2018-09-25T02:01:07.631Z,99.90
2018-09-25T02:03:41.604Z,99.90
2018-09-25T02:06:16.286Z,99.90
2018-09-25T02:08:49.964Z,99.90
2018-09-25T02:11:23.604Z,99.90
2018-09-25T02:13:57.303Z,99.90
2018-09-25T02:16:31.046Z,99.90
2018-09-25T02:19:04.710Z,99.90
2018-09-25T02:21:38.404Z,99.90
2018-09-25T02:24:12.544Z,99.90
2018-09-25T02:26:46.303Z,99.90
2018-09-25T02:29:20.012Z,99.90
2018-09-25T02:31:53.712Z,99.90
2018-09-25T02:34:27.620Z,99.90
2018-09-25T02:37:01.588Z,99.90
2018-09-25T02:39:35.676Z,99.90
2018-09-25T02:42:09.753Z,99.90
2018-09-25T02:44:43.848Z,99.90
2018-09-25T02:47:17.980Z,99.90
2018-09-25T02:49:51.776Z,99.90
2018-09-25T02:52:25.681Z,99.90
2018-09-25T02:54:59.638Z,99.90
2018-09-25T02:57:33.505Z,99.90
2018-09-25T03:00:07.515Z,99.90
2018-09-25T03:02:41.714Z,99.90
2018-09-25T03:05:15.702Z,99.90
2018-09-25T03:07:49.761Z,99.90
2018-09-25T03:10:23.425Z,99.90
2018-09-25T03:12:57.392Z,99.90
2018-09-25T03:15:31.236Z,99.90
2018-09-25T03:18:05.075Z,99.90
2018-09-25T03:20:39.141Z,99.90
2018-09-25T03:23:13.001Z,99.90
2018-09-25T03:25:46.974Z,99.90
2018-09-25T03:28:20.917Z,99.90
2018-09-25T03:30:54.716Z,99.90
2018-09-25T03:33:28.540Z,99.90
2018-09-25T03:36:02.463Z,99.90
2018-09-25T03:38:36.686Z,99.90
2018-09-25T03:41:10.488Z,99.90
2018-09-25T03:43:44.313Z,99.90
2018-09-25T03:46:18.121Z,99.90
2018-09-25T03:48:51.919Z,99.90
2018-09-25T03:51:25.589Z,99.90
2018-09-25T03:53:59.376Z,99.90
2018-09-25T03:56:33.265Z,99.90
2018-09-25T03:59:06.952Z,99.90
2018-09-25T04:01:40.800Z,99.90
2018-09-25T04:04:14.513Z,99.90
2018-09-25T04:06:48.227Z,99.90
2018-09-25T04:09:22.085Z,99.90
2018-09-25T04:11:55.778Z,99.90
2018-09-25T04:14:29.583Z,99.90
2018-09-25T04:17:03.537Z,99.90
2018-09-25T04:19:37.288Z,99.90
2018-09-25T04:22:11.202Z,99.90
2018-09-25T04:24:45.035Z,99.90
2018-09-25T04:27:18.772Z,99.90
2018-09-25T04:29:52.604Z,99.90
2018-09-25T04:32:26.425Z,99.90
2018-09-25T04:35:00.185Z,99.90
2018-09-25T04:37:33.936Z,99.90
2018-09-25T04:40:07.663Z,99.90
2018-09-25T04:42:41.524Z,99.90
2018-09-25T04:45:15.135Z,99.90
2018-09-25T04:47:48.865Z,99.90
2018-09-25T04:50:22.565Z,99.90
2018-09-25T04:52:56.269Z,99.90
2018-09-25T04:55:30.449Z,99.90
2018-09-25T04:58:04.268Z,99.90
2018-09-25T05:00:37.975Z,99.90
2018-09-25T05:03:11.789Z,99.90
2018-09-25T05:05:45.403Z,99.90
2018-09-25T05:08:19.125Z,99.90
2018-09-25T05:10:52.837Z,99.90
2018-09-25T05:13:26.725Z,99.90
2018-09-25T05:16:00.607Z,99.90
2018-09-25T05:18:34.429Z,99.90
2018-09-25T05:21:08.231Z,99.90
2018-09-25T05:23:41.937Z,99.90
2018-09-25T05:26:15.697Z,99.90
2018-09-25T05:28:49.568Z,99.90
2018-09-25T05:31:23.476Z,99.90
2018-09-25T05:33:57.163Z,99.90
2018-09-25T05:36:31.034Z,99.90
2018-09-25T05:39:04.767Z,99.90
2018-09-25T05:41:38.597Z,99.90
2018-09-25T05:44:12.293Z,99.90
2018-09-25T05:46:45.986Z,99.90
2018-09-25T05:49:19.812Z,99.90
2018-09-25T05:51:53.465Z,99.90
2018-09-25T05:54:27.185Z,99.90
2018-09-25T05:57:00.880Z,99.90
2018-09-25T05:59:34.642Z,99.90
2018-09-25T06:02:08.434Z,99.90
2018-09-25T06:04:42.112Z,99.90
2018-09-25T06:07:15.962Z,99.90
2018-09-25T06:09:50.217Z,99.90
2018-09-25T06:12:24.045Z,99.90
2018-09-25T06:14:57.844Z,99.90
2018-09-25T06:17:31.580Z,99.90
2018-09-25T06:20:05.248Z,99.90
2018-09-25T06:22:39.081Z,99.90
2018-09-25T06:25:12.849Z,99.90
2018-09-25T06:27:46.590Z,99.90
2018-09-25T06:30:20.410Z,99.90
2018-09-25T06:32:54.309Z,99.90
2018-09-25T06:35:28.801Z,99.90
2018-09-25T06:38:02.697Z,99.90
2018-09-25T06:40:36.423Z,99.90
2018-09-25T06:43:10.116Z,99.90
2018-09-25T06:45:43.740Z,99.90
2018-09-25T06:48:17.553Z,99.90
2018-09-25T06:50:51.366Z,99.90
2018-09-25T06:53:24.977Z,99.90
2018-09-25T06:55:58.785Z,99.90
2018-09-25T06:58:32.569Z,99.90
2018-09-25T07:01:06.314Z,99.90
2018-09-25T07:03:40.050Z,99.90
2018-09-25T07:06:13.812Z,99.90
2018-09-25T07:08:47.671Z,99.90
2018-09-25T07:11:21.537Z,99.90
2018-09-25T07:13:55.460Z,99.90
2018-09-25T07:16:29.140Z,99.80
2018-09-25T07:19:02.929Z,99.50
2018-09-25T07:21:36.753Z,99.40
2018-09-25T07:24:10.635Z,99.90
2018-09-25T07:26:44.462Z,99.90
2018-09-25T07:29:18.137Z,99.90
2018-09-25T07:31:51.978Z,99.90
2018-09-25T07:34:25.837Z,99.70
2018-09-25T07:36:59.645Z,99.40
2018-09-25T07:39:33.347Z,98.80
2018-09-25T07:42:07.164Z,98.40
2018-09-25T07:44:41.068Z,98.00
2018-09-25T07:47:14.723Z,97.00
2018-09-25T07:49:48.495Z,97.20
2018-09-25T07:52:22.474Z,97.20
2018-09-25T07:54:56.264Z,96.60
2018-09-25T07:57:30.113Z,96.30
2018-09-25T08:00:03.937Z,96.50
2018-09-25T08:02:38.453Z,95.50
2018-09-25T08:05:12.291Z,95.00
2018-09-25T08:07:46.271Z,94.70
2018-09-25T08:10:19.922Z,94.10
2018-09-25T08:12:54.808Z,94.30
2018-09-25T08:15:35.648Z,94.00
2018-09-25T08:18:09.505Z,93.10
2018-09-25T08:20:43.337Z,93.00
2018-09-25T08:23:17.097Z,93.70
2018-09-25T08:25:50.972Z,92.10
2018-09-25T08:28:25.327Z,91.80
2018-09-25T08:30:59.077Z,91.30
2018-09-25T08:33:32.803Z,91.20
2018-09-25T08:36:06.632Z,92.00
2018-09-25T08:38:40.253Z,91.80
2018-09-25T08:41:13.895Z,90.10
2018-09-25T08:43:47.671Z,90.60
2018-09-25T08:46:21.478Z,88.30
2018-09-25T08:48:55.246Z,88.60
2018-09-25T08:51:29.075Z,90.30
2018-09-25T08:54:02.800Z,86.30
2018-09-25T08:56:36.500Z,85.40
2018-09-25T08:59:10.302Z,87.70
2018-09-25T09:01:43.933Z,85.50
2018-09-25T09:04:17.710Z,86.20
2018-09-25T09:06:51.565Z,85.90
2018-09-25T09:09:25.239Z,86.40
2018-09-25T09:11:58.972Z,82.60
2018-09-25T09:14:32.892Z,82.80
2018-09-25T09:17:06.760Z,82.50
2018-09-25T09:19:40.690Z,80.70
2018-09-25T09:22:14.498Z,78.90
2018-09-25T09:24:48.888Z,78.40
2018-09-25T09:27:23.646Z,78.70
2018-09-25T09:29:57.305Z,78.60
2018-09-25T09:32:31.302Z,78.20
2018-09-25T09:35:05.244Z,76.60
2018-09-25T09:37:38.921Z,76.20
2018-09-25T09:40:12.820Z,79.20
2018-09-25T09:42:46.640Z,79.30
2018-09-25T09:45:20.478Z,78.50
2018-09-25T09:47:54.398Z,78.20
2018-09-25T09:50:28.316Z,77.30
2018-09-25T09:53:01.998Z,76.50
2018-09-25T09:55:35.789Z,76.30
2018-09-25T09:58:09.499Z,77.20
2018-09-25T10:00:43.187Z,75.90
2018-09-25T10:03:16.956Z,77.90
2018-09-25T10:05:50.664Z,77.00
2018-09-25T10:08:24.403Z,77.90
2018-09-25T10:10:58.238Z,77.30
2018-09-25T10:13:32.079Z,78.30
2018-09-25T10:16:05.841Z,77.60
2018-09-25T10:18:39.702Z,77.60
2018-09-25T10:21:13.581Z,77.90
2018-09-25T10:23:47.408Z,78.40
2018-09-25T10:26:21.169Z,78.80
2018-09-25T10:28:55.498Z,79.20
2018-09-25T10:31:29.281Z,77.10
2018-09-25T10:34:05.045Z,75.60
2018-09-25T10:36:38.889Z,73.20
2018-09-25T10:39:13.939Z,74.80
2018-09-25T10:41:47.700Z,76.00
2018-09-25T10:44:21.604Z,75.00
2018-09-25T10:46:55.505Z,71.40
2018-09-25T10:49:29.292Z,69.20
2018-09-25T10:52:03.018Z,68.40
2018-09-25T10:54:36.862Z,69.20
2018-09-25T10:57:10.885Z,70.70
2018-09-25T10:59:44.785Z,72.50
2018-09-25T11:02:18.433Z,71.90
2018-09-25T11:04:52.144Z,72.90
2018-09-25T11:07:25.792Z,73.70
2018-09-25T11:09:59.453Z,74.80
2018-09-25T11:12:33.213Z,73.40
2018-09-25T11:15:07.080Z,73.70
2018-09-25T11:17:40.869Z,71.60
2018-09-25T11:20:14.849Z,70.50
2018-09-25T11:22:48.634Z,70.50
2018-09-25T11:25:22.554Z,69.90
2018-09-25T11:27:56.392Z,70.10
2018-09-25T11:30:30.205Z,71.50
2018-09-25T11:33:04.052Z,73.60
2018-09-25T11:35:37.761Z,69.40
2018-09-25T11:38:11.506Z,69.30
2018-09-25T11:40:45.324Z,64.90
2018-09-25T11:43:19.131Z,63.70
2018-09-25T11:45:53.111Z,66.90
2018-09-25T11:48:26.871Z,66.40
2018-09-25T11:51:00.672Z,69.20
2018-09-25T11:53:34.502Z,67.40
2018-09-25T11:56:08.186Z,65.30
2018-09-25T11:58:42.037Z,64.80
2018-09-25T12:01:15.896Z,62.80
2018-09-25T12:03:49.686Z,61.40
2018-09-25T12:06:24.567Z,61.20
2018-09-25T12:08:58.451Z,61.90
2018-09-25T12:11:32.166Z,64.40
2018-09-25T12:14:06.100Z,65.40
2018-09-25T12:16:39.984Z,63.30
2018-09-25T12:19:13.761Z,61.50
2018-09-25T12:21:47.798Z,61.10
2018-09-25T12:24:21.575Z,61.20
2018-09-25T12:26:55.273Z,65.70
2018-09-25T12:29:29.652Z,66.40
2018-09-25T12:32:03.275Z,66.60
2018-09-25T12:34:37.046Z,61.50
2018-09-25T12:37:11.685Z,65.50
2018-09-25T12:39:46.118Z,65.30
2018-09-25T12:42:19.984Z,64.00
2018-09-25T12:44:53.762Z,62.30
2018-09-25T12:47:28.078Z,58.30
2018-09-25T12:50:01.909Z,58.90
2018-09-25T12:52:36.402Z,58.30
2018-09-25T12:55:11.017Z,59.10
2018-09-25T12:57:44.879Z,58.90
2018-09-25T13:00:18.605Z,56.50
2018-09-25T13:02:52.269Z,59.50
2018-09-25T13:05:26.065Z,58.70
2018-09-25T13:07:59.885Z,60.30
2018-09-25T13:10:33.632Z,62.50
2018-09-25T13:13:07.346Z,62.00
2018-09-25T13:15:41.220Z,63.90
2018-09-25T13:18:15.042Z,61.50
2018-09-25T13:20:48.769Z,61.40
2018-09-25T13:23:22.640Z,60.00
2018-09-25T13:25:56.215Z,60.30
2018-09-25T13:28:30.142Z,63.30
2018-09-25T13:31:03.767Z,60.60
2018-09-25T13:33:37.421Z,57.50
2018-09-25T13:36:11.321Z,59.50
2018-09-25T13:38:45.099Z,58.30
2018-09-25T13:41:18.823Z,60.40
2018-09-25T13:43:52.452Z,58.60
2018-09-25T13:46:26.191Z,60.40
2018-09-25T13:48:59.856Z,63.50
2018-09-25T13:51:33.458Z,64.40
2018-09-25T13:54:07.234Z,61.00
2018-09-25T13:56:40.841Z,60.70
2018-09-25T13:59:14.735Z,60.60
2018-09-25T14:01:48.355Z,60.90
2018-09-25T14:04:22.704Z,59.60
2018-09-25T14:06:56.517Z,62.80
2018-09-25T14:09:30.252Z,61.20
2018-09-25T14:12:04.172Z,60.80
2018-09-25T14:14:37.835Z,58.40
2018-09-25T14:17:11.614Z,59.60
2018-09-25T14:19:45.349Z,60.00
2018-09-25T14:22:18.949Z,60.00
2018-09-25T14:24:52.810Z,63.50
2018-09-25T14:27:26.585Z,62.50
2018-09-25T14:30:00.352Z,60.80
2018-09-25T14:32:35.059Z,63.00
2018-09-25T14:35:08.957Z,59.90
2018-09-25T14:37:42.920Z,59.60
2018-09-25T14:40:16.697Z,59.30
2018-09-25T14:42:50.540Z,61.40
2018-09-25T14:45:24.267Z,60.90
2018-09-25T14:47:58.040Z,64.10
2018-09-25T14:50:31.802Z,65.50
2018-09-25T14:53:05.535Z,67.50
2018-09-25T14:55:39.340Z,66.30
2018-09-25T14:58:13.151Z,66.60
2018-09-25T15:00:46.764Z,66.80
2018-09-25T15:03:20.543Z,67.40
2018-09-25T15:05:54.400Z,64.00
2018-09-25T15:08:27.990Z,63.20
2018-09-25T15:11:01.764Z,65.60
2018-09-25T15:13:35.601Z,65.00
2018-09-25T15:16:09.348Z,65.50
2018-09-25T15:18:43.144Z,65.00
2018-09-25T15:21:16.927Z,65.00
2018-09-25T15:23:50.782Z,62.90
2018-09-25T15:26:25.386Z,63.90
2018-09-25T15:28:59.102Z,64.60
2018-09-25T15:31:32.966Z,62.80
2018-09-25T15:34:06.670Z,62.10
2018-09-25T15:36:40.237Z,62.20
2018-09-25T15:39:15.024Z,62.30
2018-09-25T15:41:48.799Z,63.50
2018-09-25T15:44:23.772Z,65.00
2018-09-25T15:46:57.457Z,65.90
2018-09-25T15:49:31.197Z,66.90
2018-09-25T15:52:05.146Z,68.70
2018-09-25T15:54:39.043Z,68.30
2018-09-25T15:57:14.315Z,69.50
2018-09-25T15:59:48.094Z,69.10
2018-09-25T16:02:21.813Z,67.20
2018-09-25T16:04:56.156Z,67.70
2018-09-25T16:07:30.146Z,66.60
2018-09-25T16:10:03.979Z,66.50
2018-09-25T16:12:37.690Z,66.90
2018-09-25T16:15:11.544Z,68.70
2018-09-25T16:17:45.269Z,67.70
2018-09-25T16:20:19.220Z,67.50
2018-09-25T16:22:53.098Z,66.40
2018-09-25T16:25:26.915Z,67.90
2018-09-25T16:28:00.789Z,69.10
2018-09-25T16:30:34.443Z,70.30
2018-09-25T16:33:08.160Z,71.70
2018-09-25T16:35:41.791Z,69.60
2018-09-25T16:38:15.584Z,70.50
2018-09-25T16:40:49.548Z,70.50
2018-09-25T16:43:23.206Z,71.90
2018-09-25T16:45:56.776Z,74.00
2018-09-25T16:48:30.675Z,73.80
2018-09-25T16:51:04.456Z,73.70
2018-09-25T16:53:38.219Z,73.70
2018-09-25T16:56:12.223Z,74.60
2018-09-25T16:58:46.007Z,74.00
2018-09-25T17:01:19.769Z,75.10
2018-09-25T17:03:53.576Z,75.20
2018-09-25T17:06:27.368Z,76.80
2018-09-25T17:09:01.078Z,77.70
2018-09-25T17:11:35.203Z,77.50
2018-09-25T17:14:09.017Z,77.30
2018-09-25T17:16:42.704Z,77.00
2018-09-25T17:19:16.416Z,78.00
2018-09-25T17:21:50.800Z,77.90
2018-09-25T17:24:24.477Z,78.20
2018-09-25T17:26:58.852Z,78.90
2018-09-25T17:29:33.120Z,79.30
2018-09-25T17:32:07.321Z,79.50
2018-09-25T17:34:41.142Z,80.20
2018-09-25T17:37:14.949Z,81.30
2018-09-25T17:39:49.361Z,82.20
2018-09-25T17:42:23.090Z,82.80
2018-09-25T17:44:58.005Z,83.70
2018-09-25T17:47:32.267Z,83.70
2018-09-25T17:50:06.439Z,83.10
2018-09-25T17:52:40.153Z,83.60
2018-09-25T17:55:13.910Z,84.50
2018-09-25T17:57:47.830Z,84.70
2018-09-25T18:00:21.641Z,84.70
2018-09-25T18:02:55.360Z,84.80
2018-09-25T18:05:29.014Z,85.00
2018-09-25T18:08:03.816Z,86.70
2018-09-25T18:10:37.426Z,87.90
2018-09-25T18:13:11.046Z,87.50
2018-09-25T18:15:44.855Z,87.40
2018-09-25T18:18:18.678Z,88.30
2018-09-25T18:20:52.576Z,88.90
2018-09-25T18:23:26.314Z,89.20
2018-09-25T18:25:59.936Z,89.80
2018-09-25T18:28:33.791Z,90.00
2018-09-25T18:31:07.577Z,89.70
2018-09-25T18:33:41.290Z,89.10
2018-09-25T18:36:15.131Z,88.80
2018-09-25T18:38:48.967Z,88.50
2018-09-25T18:41:22.816Z,89.00
2018-09-25T18:43:56.506Z,88.90
2018-09-25T18:46:30.347Z,88.50
2018-09-25T18:49:04.231Z,89.50
2018-09-25T18:51:38.002Z,90.00
2018-09-25T18:54:11.700Z,89.40
2018-09-25T18:56:46.079Z,89.60
2018-09-25T18:59:19.817Z,90.00
2018-09-25T19:01:53.684Z,89.80
2018-09-25T19:04:27.532Z,89.10
2018-09-25T19:07:01.678Z,89.10
2018-09-25T19:09:35.405Z,88.90
2018-09-25T19:12:09.556Z,89.30
2018-09-25T19:14:43.344Z,88.70
2018-09-25T19:17:17.291Z,87.90
2018-09-25T19:19:50.997Z,88.10
2018-09-25T19:22:24.804Z,90.10
2018-09-25T19:24:58.718Z,90.70
2018-09-25T19:27:33.021Z,91.30
2018-09-25T19:30:06.723Z,91.50
2018-09-25T19:32:40.981Z,92.10
2018-09-25T19:35:14.922Z,91.60
2018-09-25T19:37:49.358Z,91.80
2018-09-25T19:40:23.587Z,92.00
2018-09-25T19:42:58.851Z,92.10
2018-09-25T19:45:34.086Z,92.10
2018-09-25T19:48:08.416Z,92.10
2018-09-25T19:50:42.301Z,92.10
2018-09-25T19:53:16.660Z,92.20
2018-09-25T19:55:50.937Z,92.30
2018-09-25T19:58:24.624Z,92.60
2018-09-25T20:00:58.343Z,92.80
2018-09-25T20:03:32.268Z,93.00
2018-09-25T20:06:06.172Z,93.00
2018-09-25T20:08:41.382Z,93.70
2018-09-25T20:11:15.369Z,93.90
2018-09-25T20:13:49.246Z,94.10
2018-09-25T20:16:23.531Z,94.00
2018-09-25T20:18:57.640Z,94.00
2018-09-25T20:21:31.426Z,93.80
2018-09-25T20:24:05.240Z,94.10
2018-09-25T20:26:39.056Z,94.10
2018-09-25T20:29:12.873Z,94.10
2018-09-25T20:31:46.638Z,94.30
2018-09-25T20:34:20.344Z,94.60
2018-09-25T20:36:54.081Z,95.50
2018-09-25T20:39:27.703Z,95.20
2018-09-25T20:42:01.402Z,95.40
2018-09-25T20:44:35.278Z,95.00
2018-09-25T20:47:09.113Z,94.50
2018-09-25T20:49:42.792Z,94.60
2018-09-25T20:52:16.694Z,94.80
2018-09-25T20:54:50.555Z,94.60
2018-09-25T20:57:24.309Z,94.90
2018-09-25T20:59:58.110Z,94.70
2018-09-25T21:02:31.954Z,94.70
2018-09-25T21:05:05.758Z,94.70
2018-09-25T21:07:39.554Z,94.60
2018-09-25T21:10:13.383Z,94.80
2018-09-25T21:12:47.235Z,94.70
2018-09-25T21:15:21.348Z,94.60
2018-09-25T21:17:55.292Z,94.70
2018-09-25T21:20:29.051Z,94.90
2018-09-25T21:23:02.764Z,95.00
2018-09-25T21:25:36.532Z,94.80
2018-09-25T21:28:10.279Z,94.50
2018-09-25T21:30:43.942Z,94.60
2018-09-25T21:33:17.574Z,95.10
2018-09-25T21:35:51.413Z,94.20
2018-09-25T21:38:25.226Z,94.10
2018-09-25T21:40:59.057Z,94.40
2018-09-25T21:43:32.766Z,94.50
2018-09-25T21:46:06.613Z,94.90
2018-09-25T21:48:41.645Z,94.50
2018-09-25T21:51:15.497Z,94.60
2018-09-25T21:53:49.184Z,94.80
2018-09-25T21:56:22.807Z,94.70
2018-09-25T21:58:56.591Z,94.60
2018-09-25T22:01:30.437Z,94.80
2018-09-25T22:04:04.178Z,94.60
2018-09-25T22:06:37.993Z,95.00
2018-09-25T22:09:12.925Z,95.00
2018-09-25T22:11:46.864Z,95.00
2018-09-25T22:14:20.677Z,95.20
2018-09-25T22:16:54.459Z,95.20
2018-09-25T22:19:28.180Z,95.20
2018-09-25T22:22:01.957Z,95.10
2018-09-25T22:24:35.705Z,95.10
2018-09-25T22:27:09.824Z,95.00
2018-09-25T22:29:43.464Z,94.80
2018-09-25T22:32:17.338Z,94.90
2018-09-25T22:34:51.063Z,94.80
2018-09-25T22:37:24.877Z,94.90
2018-09-25T22:39:58.496Z,95.30
2018-09-25T22:42:32.211Z,95.40
2018-09-25T22:45:05.930Z,95.60
2018-09-25T22:47:39.724Z,95.90
2018-09-25T22:50:13.383Z,96.00
2018-09-25T22:52:46.981Z,96.10
2018-09-25T22:55:20.766Z,96.20
2018-09-25T22:57:54.556Z,96.30
2018-09-25T23:00:28.336Z,96.30
2018-09-25T23:03:01.948Z,96.10
2018-09-25T23:05:35.778Z,96.50
2018-09-25T23:08:09.561Z,96.50
2018-09-25T23:10:43.365Z,96.70
2018-09-25T23:13:17.039Z,96.50
2018-09-25T23:15:50.609Z,96.30
2018-09-25T23:18:24.335Z,96.30
2018-09-25T23:20:58.145Z,96.60
2018-09-25T23:23:32.023Z,96.80
2018-09-25T23:26:05.717Z,96.90
2018-09-25T23:28:39.508Z,96.80
2018-09-25T23:31:13.198Z,96.80
2018-09-25T23:33:47.006Z,96.40
2018-09-25T23:36:21.746Z,96.30
2018-09-25T23:38:55.686Z,96.30
2018-09-25T23:41:32.274Z,96.40
2018-09-25T23:44:06.954Z,96.40
2018-09-25T23:46:39.600Z,96.50
2018-09-25T23:49:12.283Z,96.70
2018-09-25T23:51:46.057Z,96.70
2018-09-25T23:54:22.772Z,97.00
2018-09-25T23:57:04.345Z,97.30
